Time;durP1;ratioP1;P1;durP2;ratioP2;P2;SDS_P1;SDS_P2;PMS_P1;PMS_P2;Temp;Humidity;BMP_temperature;BMP_pressure;BME280_temperature;BME280_humidity;BME280_pressure;Samples;Min_cycle;Max_cycle;Signal;HPM_P1;HPM_P2
2023/10/24 00:00:41;;;;;;;;;;;;;;;10.35;100.00;94909.81;10510290;28;2703;-80
2023/10/24 00:05:52;;;;;;;;;;;;;;;10.33;100.00;94899.38;10509429;28;2664;-79
2023/10/24 00:10:57;;;;;;;;;;;;;;;10.38;100.00;94903.88;10511496;28;2598;-79
2023/10/24 00:16:02;;;;;;;;;;;;;;;10.44;100.00;94895.44;10518806;28;2698;-79
2023/10/24 00:21:06;;;;;;;;;;;;;;;10.48;100.00;94906.38;10512127;28;2780;-79
2023/10/24 00:26:09;;;;;;;;;;;;;;;10.58;100.00;94911.59;10519157;28;3093;-81
2023/10/24 00:31:13;;;;;;;;;;;;;;;10.64;100.00;94934.59;10518167;28;2545;-79
2023/10/24 00:36:20;;;;;;;;;;;;;;;10.64;100.00;94937.28;10510701;28;2597;-79
2023/10/24 00:41:26;;;;;;;;;;;;;;;10.43;100.00;94952.13;10507667;28;4610;-79
2023/10/24 00:46:32;;;;;;;;;;;;;;;10.23;100.00;94942.47;10519827;28;2683;-79
2023/10/24 00:51:43;;;;;;;;;;;;;;;10.08;100.00;94951.53;10506023;28;2638;-79
2023/10/24 00:56:49;;;;;;;;;;;;;;;9.99;100.00;94964.03;10510862;28;2686;-81
2023/10/24 01:01:58;;;;;;;;;;;;;;;9.96;100.00;94980.69;10520066;28;2771;-80
2023/10/24 01:07:01;;;;;;;;;;;;;;;9.95;100.00;94953.06;10508466;28;2683;-79
2023/10/24 01:12:08;;;;;;;;;;;;;;;9.93;100.00;94965.19;10510303;28;3027;-79
2023/10/24 01:17:17;;;;;;;;;;;;;;;9.87;100.00;94961.75;10510292;28;2632;-80
2023/10/24 01:22:23;;;;;;;;;;;;;;;9.91;100.00;94967.34;10508133;28;2683;-80
2023/10/24 01:27:28;;;;;;;;;;;;;;;9.89;100.00;94958.78;10487910;28;2755;-80
2023/10/24 01:32:31;;;;;;;;;;;;;;;9.86;100.00;94964.72;10510078;28;2687;-79
2023/10/24 01:37:38;;;;;;;;;;;;;;;9.83;100.00;94951.88;10529755;28;2640;-79
2023/10/24 01:42:51;;;;;;;;;;;;;;;9.86;100.00;94944.06;10512007;28;4633;-79
2023/10/24 01:47:57;;;;;;;;;;;;;;;9.77;100.00;94945.78;10536867;27;2796;-77
2023/10/24 01:53:08;;;;;;;;;;;;;;;9.66;100.00;94947.78;10518526;28;2564;-79
2023/10/24 01:58:26;;;;;;;;;;;;;;;9.59;100.00;94949.22;10554447;27;2711;-78
2023/10/24 02:03:35;;;;;;;;;;;;;;;9.47;100.00;94952.31;10550253;27;2646;-79
2023/10/24 02:08:47;;;;;;;;;;;;;;;9.49;100.00;94960.91;10514930;28;2596;-77
2023/10/24 02:13:50;;;;;;;;;;;;;;;9.47;100.00;94961.16;10545747;27;2767;-78
2023/10/24 02:18:58;;;;;;;;;;;;;;;9.44;100.00;94969.00;10519574;28;2711;-80
2023/10/24 02:24:04;;;;;;;;;;;;;;;9.45;100.00;94962.53;10548400;27;2589;-79
2023/10/24 02:29:14;;;;;;;;;;;;;;;9.50;100.00;94932.97;10510040;28;2594;-79
2023/10/24 02:34:21;;;;;;;;;;;;;;;9.53;100.00;94932.38;10517102;28;2585;-79
2023/10/24 02:39:33;;;;;;;;;;;;;;;9.44;100.00;94926.88;10514170;28;2607;-77
2023/10/24 02:44:40;;;;;;;;;;;;;;;9.33;100.00;94919.22;10543010;27;4804;-78
2023/10/24 02:49:54;;;;;;;;;;;;;;;9.23;100.00;94914.00;10510728;28;3421;-78
2023/10/24 02:55:07;;;;;;;;;;;;;;;9.12;100.00;94918.66;10499440;28;2581;-80
2023/10/24 03:00:22;;;;;;;;;;;;;;;9.03;100.00;94917.66;10501920;28;2699;-78
2023/10/24 03:05:41;;;;;;;;;;;;;;;8.93;100.00;94918.59;10520213;28;2751;-80
2023/10/24 03:10:47;;;;;;;;;;;;;;;8.89;100.00;94896.09;10518314;28;2590;-78
2023/10/24 03:16:09;;;;;;;;;;;;;;;8.88;100.00;94907.91;10490822;28;2613;-78
2023/10/24 03:21:16;;;;;;;;;;;;;;;8.87;100.00;94912.47;10501024;28;2664;-78
2023/10/24 03:26:23;;;;;;;;;;;;;;;8.83;100.00;94910.63;10511464;28;2798;-78
2023/10/24 03:31:27;;;;;;;;;;;;;;;8.77;100.00;94890.34;10508188;28;2956;-79
2023/10/24 03:36:39;;;;;;;;;;;;;;;8.79;100.00;94883.63;10487168;28;2596;-80
2023/10/24 03:41:43;;;;;;;;;;;;;;;8.80;100.00;94857.63;10491481;28;4704;-78
2023/10/24 03:46:58;;;;;;;;;;;;;;;8.86;100.00;94872.56;10488617;28;2637;-78
2023/10/24 03:52:05;;;;;;;;;;;;;;;8.82;100.00;94880.38;10450859;28;2664;-78
2023/10/24 03:57:09;;;;;;;;;;;;;;;8.81;100.00;94859.22;10465692;28;2605;-78
2023/10/24 04:02:12;;;;;;;;;;;;;;;8.86;100.00;94861.84;10441791;28;2650;-78
2023/10/24 04:07:19;;;;;;;;;;;;;;;8.99;100.00;94857.69;10474334;28;2661;-81
2023/10/24 04:12:22;;;;;;;;;;;;;;;8.99;100.00;94837.03;10449910;28;2641;-82
2023/10/24 04:17:33;;;;;;;;;;;;;;;9.06;100.00;94826.75;10479510;28;2623;-80
2023/10/24 04:22:37;;;;;;;;;;;;;;;9.27;100.00;94840.72;10447013;28;2579;-77
2023/10/24 04:27:47;;;;;;;;;;;;;;;9.32;100.00;94832.59;10465651;28;2646;-81
2023/10/24 04:32:50;;;;;;;;;;;;;;;9.39;100.00;94822.31;10469419;28;2618;-79
2023/10/24 04:37:59;;;;;;;;;;;;;;;9.48;100.00;94809.06;10454388;28;2633;-77
2023/10/24 04:43:17;;;;;;;;;;;;;;;9.47;100.00;94796.72;10470010;28;2694;-78
2023/10/24 04:48:26;;;;;;;;;;;;;;;9.57;100.00;94801.16;10500580;28;2636;-78
2023/10/24 04:53:31;;;;;;;;;;;;;;;9.55;100.00;94801.47;10517278;28;2613;-77
2023/10/24 04:58:37;;;;;;;;;;;;;;;9.56;100.00;94795.00;10507350;28;2694;-80
2023/10/24 05:03:59;;;;;;;;;;;;;;;9.59;100.00;94786.34;10509533;28;2597;-79
2023/10/24 05:09:03;;;;;;;;;;;;;;;9.55;100.00;94789.94;10513488;28;2660;-81
2023/10/24 05:14:20;;;;;;;;;;;;;;;9.50;100.00;94774.69;10517630;28;2612;-80
2023/10/24 05:19:33;;;;;;;;;;;;;;;9.50;100.00;94779.28;10517748;28;2761;-79
2023/10/24 05:24:38;;;;;;;;;;;;;;;9.45;100.00;94782.81;10515386;28;2707;-78
2023/10/24 05:29:44;;;;;;;;;;;;;;;9.44;100.00;94805.38;10510048;28;2639;-78
2023/10/24 05:34:49;;;;;;;;;;;;;;;9.37;100.00;94805.72;10516146;28;2842;-78
2023/10/24 05:39:59;;;;;;;;;;;;;;;9.31;100.00;94812.25;10553991;27;2524;-80
2023/10/24 05:45:09;;;;;;;;;;;;;;;9.43;100.00;94804.56;10517173;28;2663;-77
2023/10/24 05:50:18;;;;;;;;;;;;;;;9.48;100.00;94791.09;10518697;28;2636;-78
2023/10/24 06:01:09;;;;;;;;;;;;;;;9.70;100.00;94785.13;10511795;28;2672;-79
2023/10/24 06:06:17;;;;;;;;;;;;;;;9.76;100.00;94767.06;10493594;28;2612;-80
2023/10/24 06:11:21;;;;;;;;;;;;;;;9.93;100.00;94761.97;10516623;28;2738;-83
2023/10/24 06:16:31;;;;;;;;;;;;;;;10.03;100.00;94734.91;10496997;28;2640;-82
2023/10/24 06:22:00;;;;;;;;;;;;;;;9.92;100.00;94725.44;10529758;28;2704;-83
2023/10/24 06:27:09;;;;;;;;;;;;;;;9.92;100.00;94730.00;10518058;28;2715;-82
2023/10/24 06:32:13;;;;;;;;;;;;;;;9.91;100.00;94720.38;10496299;28;2673;-81
2023/10/24 06:37:19;;;;;;;;;;;;;;;10.09;100.00;94695.34;10514019;28;2656;-82
2023/10/24 06:42:25;;;;;;;;;;;;;;;10.24;100.00;94708.53;10486354;28;4642;-79
2023/10/24 06:47:33;;;;;;;;;;;;;;;10.48;100.00;94696.81;10513045;28;2779;-80
2023/10/24 06:52:42;;;;;;;;;;;;;;;10.50;100.00;94695.44;10531663;28;2557;-78
2023/10/24 06:57:46;;;;;;;;;;;;;;;10.69;100.00;94689.16;10520142;28;3036;-81
2023/10/24 07:02:51;;;;;;;;;;;;;;;10.74;100.00;94692.50;10516303;28;2591;-78
2023/10/24 07:07:56;;;;;;;;;;;;;;;10.85;100.00;94709.22;10514998;28;2685;-79
2023/10/24 07:12:59;;;;;;;;;;;;;;;10.88;100.00;94705.94;10525888;28;2632;-77
2023/10/24 07:18:07;;;;;;;;;;;;;;;11.01;100.00;94686.31;10534263;28;2560;-77
2023/10/24 07:23:19;;;;;;;;;;;;;;;10.98;100.00;94668.06;10516762;28;2623;-77
2023/10/24 07:28:32;;;;;;;;;;;;;;;10.75;100.00;94677.16;10530110;28;2840;-77
2023/10/24 07:33:46;;;;;;;;;;;;;;;10.90;100.00;94670.69;10528968;28;2606;-78
2023/10/24 07:38:53;;;;;;;;;;;;;;;11.16;100.00;94682.47;10530223;28;2564;-77
2023/10/24 07:44:01;;;;;;;;;;;;;;;11.38;100.00;94660.16;10510587;28;4674;-77
2023/10/24 07:49:04;;;;;;;;;;;;;;;11.29;100.00;94673.56;10511811;28;2706;-78
2023/10/24 07:54:15;;;;;;;;;;;;;;;11.26;100.00;94660.72;10510829;28;2718;-76
2023/10/24 07:59:22;;;;;;;;;;;;;;;11.61;100.00;94663.66;10518546;28;2521;-76
2023/10/24 08:09:58;;;;;;;;;;;;;;;11.76;100.00;94649.81;10512792;28;2620;-78
2023/10/24 08:15:06;;;;;;;;;;;;;;;11.43;100.00;94635.03;10516848;28;2702;-78
2023/10/24 08:20:11;;;;;;;;;;;;;;;11.56;100.00;94644.94;10507899;28;2715;-78
2023/10/24 08:25:21;;;;;;;;;;;;;;;11.44;100.00;94658.16;10514207;28;2653;-78
2023/10/24 08:30:31;;;;;;;;;;;;;;;11.56;100.00;94653.00;10515660;28;2561;-76
2023/10/24 08:35:37;;;;;;;;;;;;;;;11.66;100.00;94642.00;10529406;28;2166;-78
2023/10/24 08:40:57;;;;;;;;;;;;;;;11.50;100.00;94616.56;10511042;28;4760;-77
2023/10/24 08:46:09;;;;;;;;;;;;;;;11.47;100.00;94617.97;10521240;28;1441;-76
2023/10/24 08:51:22;;;;;;;;;;;;;;;11.58;100.00;94630.09;10522505;28;2058;-76
2023/10/24 08:56:33;;;;;;;;;;;;;;;11.51;100.00;94631.59;10524775;28;2540;-78
2023/10/24 09:01:42;;;;;;;;;;;;;;;11.25;100.00;94629.53;10524675;28;1909;-79
2023/10/24 09:06:48;;;;;;;;;;;;;;;11.04;100.00;94648.03;10526662;28;1449;-77
2023/10/24 09:12:14;;;;;;;;;;;;;;;11.26;100.00;94633.81;10536429;28;1930;-79
2023/10/24 09:17:18;;;;;;;;;;;;;;;11.04;100.00;94631.09;10502651;28;1845;-78
2023/10/24 09:22:23;;;;;;;;;;;;;;;10.99;100.00;94620.47;10504083;28;2219;-80
2023/10/24 09:27:28;;;;;;;;;;;;;;;11.13;100.00;94607.75;10504187;28;1808;-79
2023/10/24 09:32:31;;;;;;;;;;;;;;;10.88;100.00;94594.91;10520425;28;1671;-84
2023/10/24 09:37:34;;;;;;;;;;;;;;;10.89;100.00;94577.69;10539382;28;2640;-78
2023/10/24 09:42:43;;;;;;;;;;;;;;;10.83;100.00;94579.69;10520648;28;4736;-77
2023/10/24 09:48:00;;;;;;;;;;;;;;;10.74;100.00;94570.75;10525745;28;1655;-77
2023/10/24 09:53:18;;;;;;;;;;;;;;;10.76;100.00;94571.25;10519120;28;1918;-77
2023/10/24 09:58:23;;;;;;;;;;;;;;;10.83;100.00;94564.38;10509488;28;1543;-77
2023/10/24 10:03:27;;;;;;;;;;;;;;;10.67;100.00;94555.03;10545092;28;2014;-77
2023/10/24 10:08:38;;;;;;;;;;;;;;;10.55;100.00;94549.41;10508307;28;1798;-76
2023/10/24 10:13:43;;;;;;;;;;;;;;;10.54;100.00;94545.94;10528515;28;2400;-77
2023/10/24 10:18:47;;;;;;;;;;;;;;;10.43;100.00;94538.38;10529069;28;1751;-77
2023/10/24 10:23:53;;;;;;;;;;;;;;;10.59;100.00;94530.78;10526932;28;2523;-78
2023/10/24 10:28:57;;;;;;;;;;;;;;;10.55;100.00;94514.47;10508581;28;2088;-75
2023/10/24 10:34:01;;;;;;;;;;;;;;;10.44;100.00;94505.06;10539266;28;1589;-77
2023/10/24 10:39:12;;;;;;;;;;;;;;;10.64;100.00;94493.84;10528026;28;1863;-77
2023/10/24 10:44:15;;;;;;;;;;;;;;;10.66;100.00;94491.66;10531335;28;4737;-76
2023/10/24 10:49:22;;;;;;;;;;;;;;;10.72;100.00;94489.63;10548971;27;1596;-77
2023/10/24 10:54:26;;;;;;;;;;;;;;;10.74;100.00;94480.16;10526508;28;1824;-78
2023/10/24 10:59:31;;;;;;;;;;;;;;;10.80;100.00;94478.94;10560763;27;1538;-76
2023/10/24 11:04:38;;;;;;;;;;;;;;;10.81;100.00;94491.31;10526864;28;2739;-77
2023/10/24 11:09:46;;;;;;;;;;;;;;;10.79;100.00;94481.94;10532645;28;1450;-77
2023/10/24 11:15:00;;;;;;;;;;;;;;;10.80;100.00;94478.94;10524287;28;1516;-77
2023/10/24 11:20:08;;;;;;;;;;;;;;;10.89;100.00;94494.34;10553599;27;1907;-77
2023/10/24 11:25:30;;;;;;;;;;;;;;;11.01;100.00;94511.50;10554875;27;3520;-76
2023/10/24 11:30:34;;;;;;;;;;;;;;;11.25;100.00;94516.53;10555150;27;1529;-77
2023/10/24 11:35:37;;;;;;;;;;;;;;;11.44;100.00;94507.47;10527807;28;1490;-78
2023/10/24 11:40:41;;;;;;;;;;;;;;;11.29;100.00;94517.53;10520616;28;4706;-75
2023/10/24 11:45:45;;;;;;;;;;;;;;;11.01;100.00;94511.50;10520262;28;2588;-74
2023/10/24 11:50:52;;;;;;;;;;;;;;;11.00;100.00;94522.56;10559735;27;1899;-77
2023/10/24 11:56:00;;;;;;;;;;;;;;;10.96;100.00;94514.31;10523401;28;2605;-75
2023/10/24 12:01:05;;;;;;;;;;;;;;;10.98;100.00;94512.13;10521429;28;1910;-77
2023/10/24 12:06:09;;;;;;;;;;;;;;;10.85;100.00;94496.06;10527690;28;3045;-78
2023/10/24 12:11:17;;;;;;;;;;;;;;;10.89;100.00;94481.69;10525205;28;2913;-76
2023/10/24 12:16:21;;;;;;;;;;;;;;;10.79;100.00;94484.63;10503370;28;2681;-76
2023/10/24 12:21:27;;;;;;;;;;;;;;;10.73;100.00;94483.94;10524662;28;1921;-77
2023/10/24 12:26:33;;;;;;;;;;;;;;;10.73;100.00;94464.34;10520838;28;2548;-77
2023/10/24 12:31:38;;;;;;;;;;;;;;;10.60;100.00;94468.69;10522365;28;1794;-76
2023/10/24 12:36:46;;;;;;;;;;;;;;;10.73;100.00;94457.06;10522200;28;2799;-77
2023/10/24 12:41:53;;;;;;;;;;;;;;;10.74;100.00;94455.19;10521397;28;4698;-76
2023/10/24 12:47:00;;;;;;;;;;;;;;;10.87;100.00;94456.22;10518512;28;1526;-77
2023/10/24 12:52:03;;;;;;;;;;;;;;;11.18;100.00;94466.97;10522329;28;2972;-77
2023/10/24 12:57:14;;;;;;;;;;;;;;;11.31;100.00;94483.03;10520021;28;1621;-77
2023/10/24 13:02:18;;;;;;;;;;;;;;;11.37;100.00;94479.09;10520224;28;1989;-76
2023/10/24 13:07:26;;;;;;;;;;;;;;;11.55;100.00;94488.06;10521022;28;1923;-80
2023/10/24 13:12:38;;;;;;;;;;;;;;;11.61;100.00;94486.81;10533071;28;1519;-76
2023/10/24 13:17:41;;;;;;;;;;;;;;;11.76;100.00;94488.28;10501871;28;1665;-76
2023/10/24 13:22:44;;;;;;;;;;;;;;;11.57;100.00;94472.38;10520065;28;1980;-74
2023/10/24 13:27:48;;;;;;;;;;;;;;;11.40;100.00;94469.63;10513546;28;1604;-76
2023/10/24 13:32:51;;;;;;;;;;;;;;;11.15;100.00;94468.41;10542841;27;1498;-75
2023/10/24 13:37:53;;;;;;;;;;;;;;;11.11;100.00;94472.81;10525094;28;3176;-77
2023/10/24 13:42:58;;;;;;;;;;;;;;;10.97;100.00;94480.97;10543273;28;4828;-77
2023/10/24 13:48:02;;;;;;;;;;;;;;;11.05;100.00;94498.25;10527790;28;1578;-77
2023/10/24 13:53:05;;;;;;;;;;;;;;;11.12;100.00;94501.28;10524597;28;1941;-78
2023/10/24 13:58:15;;;;;;;;;;;;;;;11.04;100.00;94505.50;10504495;28;1507;-75
2023/10/24 14:03:19;;;;;;;;;;;;;;;11.18;100.00;94500.06;10510962;28;1964;-77
2023/10/24 14:08:27;;;;;;;;;;;;;;;11.25;100.00;94489.66;10508773;28;1651;-76
2023/10/24 14:13:35;;;;;;;;;;;;;;;11.34;100.00;94463.59;10528291;28;1999;-77
2023/10/24 14:18:40;;;;;;;;;;;;;;;11.42;100.00;94482.78;10524850;28;1472;-77
2023/10/24 14:23:45;;;;;;;;;;;;;;;11.35;100.00;94493.97;10527253;28;2984;-77
2023/10/24 14:28:52;;;;;;;;;;;;;;;11.37;100.00;94518.66;10493952;28;2622;-76
2023/10/24 14:34:03;;;;;;;;;;;;;;;11.32;100.00;94522.31;10530947;28;2681;-76
2023/10/24 14:39:07;;;;;;;;;;;;;;;11.29;100.00;94528.28;10530248;28;2564;-76
2023/10/24 14:44:11;;;;;;;;;;;;;;;11.24;100.00;94523.03;10488814;28;4630;-74
2023/10/24 14:49:17;;;;;;;;;;;;;;;11.27;100.00;94535.09;10517035;28;2665;-75
2023/10/24 14:54:22;;;;;;;;;;;;;;;11.17;100.00;94536.13;10515603;28;2638;-75
2023/10/24 14:59:25;;;;;;;;;;;;;;;11.24;100.00;94541.84;10534266;28;2672;-79
2023/10/24 15:04:42;;;;;;;;;;;;;;;11.23;100.00;94539.47;10522337;28;3081;-78
2023/10/24 15:09:46;;;;;;;;;;;;;;;11.16;100.00;94547.19;10524927;28;2002;-78
2023/10/24 15:20:14;;;;;;;;;;;;;;;11.10;100.00;94533.06;10527355;28;1999;-77
2023/10/24 15:25:19;;;;;;;;;;;;;;;11.11;100.00;94553.47;10525987;28;1993;-78
2023/10/24 15:30:25;;;;;;;;;;;;;;;11.12;100.00;94543.53;10523812;28;2530;-75
2023/10/24 15:35:30;;;;;;;;;;;;;;;11.05;100.00;94539.38;10557200;27;2540;-74
2023/10/24 15:40:35;;;;;;;;;;;;;;;11.14;100.00;94547.50;10504160;28;7156;-76
2023/10/24 15:45:40;;;;;;;;;;;;;;;11.16;100.00;94539.91;10512530;28;5557;-76
2023/10/24 15:50:46;;;;;;;;;;;;;;;11.12;100.00;94549.69;10509723;28;5623;-76
2023/10/24 15:55:55;;;;;;;;;;;;;;;11.10;100.00;94557.28;10511463;28;2685;-78
2023/10/24 16:01:04;;;;;;;;;;;;;;;11.01;100.00;94556.44;10499186;28;5540;-80
2023/10/24 16:06:08;;;;;;;;;;;;;;;10.99;100.00;94558.63;10496388;28;2562;-78
2023/10/24 16:11:12;;;;;;;;;;;;;;;10.90;100.00;94568.53;10487789;28;2767;-75
2023/10/24 16:16:15;;;;;;;;;;;;;;;10.95;100.00;94561.13;10473460;28;3249;-75
2023/10/24 16:21:24;;;;;;;;;;;;;;;10.96;100.00;94570.00;10505742;28;2635;-75
2023/10/24 16:26:30;;;;;;;;;;;;;;;10.90;100.00;94573.91;10502938;28;2659;-75
2023/10/24 16:31:34;;;;;;;;;;;;;;;10.93;100.00;94589.41;10502370;28;2778;-78
2023/10/24 16:36:41;;;;;;;;;;;;;;;10.90;100.00;94590.03;10491103;28;2647;-77
2023/10/24 16:41:44;;;;;;;;;;;;;;;10.88;100.00;94597.59;10526874;28;2745;-76
2023/10/24 16:46:48;;;;;;;;;;;;;;;10.95;100.00;94603.38;10512544;28;2572;-76
2023/10/24 16:51:55;;;;;;;;;;;;;;;10.92;100.00;94603.97;10513255;28;5087;-74
2023/10/24 16:57:02;;;;;;;;;;;;;;;10.89;100.00;94604.56;10510882;28;2628;-76
2023/10/24 17:02:05;;;;;;;;;;;;;;;10.85;100.00;94609.75;10509392;28;2617;-75
2023/10/24 17:07:11;;;;;;;;;;;;;;;10.86;100.00;94618.63;10537794;27;2896;-76
2023/10/24 17:12:18;;;;;;;;;;;;;;;10.78;100.00;94610.16;10511844;28;2692;-75
2023/10/24 17:17:22;;;;;;;;;;;;;;;10.79;100.00;94611.75;10525339;28;3092;-75
2023/10/24 17:22:29;;;;;;;;;;;;;;;10.72;100.00;94614.06;10497645;28;2622;-74
2023/10/24 17:27:42;;;;;;;;;;;;;;;10.79;100.00;94603.69;10524908;28;2607;-76
2023/10/24 17:32:47;;;;;;;;;;;;;;;10.77;100.00;94602.41;10527581;28;2465;-77
2023/10/24 17:37:57;;;;;;;;;;;;;;;10.78;100.00;94604.78;10522645;28;1754;-76
2023/10/24 17:43:02;;;;;;;;;;;;;;;10.79;100.00;94594.84;10524529;28;1922;-77
2023/10/24 17:48:05;;;;;;;;;;;;;;;10.80;100.00;94591.03;10522593;28;5052;-77
2023/10/24 17:53:14;;;;;;;;;;;;;;;10.60;100.00;94581.53;10520925;28;1916;-78
2023/10/24 17:58:17;;;;;;;;;;;;;;;10.50;100.00;94585.25;10521505;28;1806;-79
2023/10/24 18:03:22;;;;;;;;;;;;;;;10.44;100.00;94588.38;10508311;28;1977;-78
2023/10/24 18:08:28;;;;;;;;;;;;;;;10.46;100.00;94583.47;10520703;28;1510;-77
2023/10/24 18:13:37;;;;;;;;;;;;;;;10.55;100.00;94587.81;10520940;28;3003;-77
2023/10/24 18:24:27;;;;;;;;;;;;;;;10.59;100.00;94601.47;10535984;28;1914;-78
2023/10/24 18:29:32;;;;;;;;;;;;;;;10.63;100.00;94593.59;10531956;28;2521;-78
2023/10/24 18:34:45;;;;;;;;;;;;;;;10.63;100.00;94601.66;10529699;28;1889;-78
2023/10/24 18:39:48;;;;;;;;;;;;;;;10.64;100.00;94609.41;10529410;28;1755;-75
2023/10/24 18:44:55;;;;;;;;;;;;;;;10.60;100.00;94613.78;10531944;28;1971;-74
2023/10/24 18:50:01;;;;;;;;;;;;;;;10.67;100.00;94613.38;10544943;28;1869;-76
2023/10/24 18:55:16;;;;;;;;;;;;;;;10.67;100.00;94610.69;10539764;28;2873;-78
2023/10/24 19:00:25;;;;;;;;;;;;;;;10.67;100.00;94613.38;10522771;28;1511;-74
2023/10/24 19:05:28;;;;;;;;;;;;;;;10.71;100.00;94611.69;10523990;28;1992;-76
2023/10/24 19:10:33;;;;;;;;;;;;;;;10.82;100.00;94613.06;10528153;28;1877;-73
2023/10/24 19:15:44;;;;;;;;;;;;;;;10.77;100.00;94608.59;10507345;28;1576;-73
2023/10/24 19:20:48;;;;;;;;;;;;;;;10.73;100.00;94617.53;10508749;28;1517;-73
2023/10/24 19:25:54;;;;;;;;;;;;;;;10.80;100.00;94612.53;10528771;28;1902;-74
2023/10/24 19:30:58;;;;;;;;;;;;;;;10.77;100.00;94619.34;10510495;28;1689;-77
2023/10/24 19:36:04;;;;;;;;;;;;;;;10.72;100.00;94610.59;10542991;28;1929;-72
2023/10/24 19:41:06;;;;;;;;;;;;;;;10.63;100.00;94609.72;10524837;28;2424;-75
2023/10/24 19:46:09;;;;;;;;;;;;;;;10.52;100.00;94617.19;10525623;28;1925;-71
2023/10/24 19:51:13;;;;;;;;;;;;;;;10.48;100.00;94625.06;10559708;27;5115;-73
2023/10/24 19:56:19;;;;;;;;;;;;;;;10.51;100.00;94629.84;10553110;27;1833;-73
2023/10/24 20:01:23;;;;;;;;;;;;;;;10.55;100.00;94635.38;10522901;28;1568;-74
2023/10/24 20:06:26;;;;;;;;;;;;;;;10.65;100.00;94627.13;10526923;28;1977;-73
2023/10/24 20:11:30;;;;;;;;;;;;;;;10.67;100.00;94626.81;10522257;28;1813;-76
2023/10/24 20:16:56;;;;;;;;;;;;;;;10.72;100.00;94627.50;10555898;27;1523;-76
2023/10/24 20:22:08;;;;;;;;;;;;;;;10.66;100.00;94634.09;10519231;28;1635;-77
2023/10/24 20:27:50;;;;;;;;;;;;;;;10.76;100.00;94633.88;10524573;28;2404;-69
2023/10/24 20:32:53;;;;;;;;;;;;;;;10.79;100.00;94638.63;10523037;28;1471;-74
2023/10/24 20:37:57;;;;;;;;;;;;;;;10.71;100.00;94642.03;10502413;28;2524;-71
2023/10/24 20:43:00;;;;;;;;;;;;;;;10.61;100.00;94644.16;10506793;28;2651;-69
2023/10/24 20:48:02;;;;;;;;;;;;;;;10.61;100.00;94636.88;10489667;28;2685;-71
2023/10/24 20:53:07;;;;;;;;;;;;;;;10.65;100.00;94640.56;10489358;28;2824;-72
2023/10/24 20:58:10;;;;;;;;;;;;;;;10.67;100.00;94649.09;10479702;28;2942;-73
2023/10/24 21:03:14;;;;;;;;;;;;;;;10.58;100.00;94642.06;10527812;28;2555;-72
2023/10/24 21:08:17;;;;;;;;;;;;;;;10.60;100.00;94650.63;10488609;28;2643;-70
2023/10/24 21:13:20;;;;;;;;;;;;;;;10.60;100.00;94656.78;10484694;28;3212;-71
2023/10/24 21:18:25;;;;;;;;;;;;;;;10.60;100.00;94656.00;10499017;28;2681;-72
2023/10/24 21:23:28;;;;;;;;;;;;;;;10.59;100.00;94649.81;10503533;28;2582;-72
2023/10/24 21:28:31;;;;;;;;;;;;;;;10.57;100.00;94654.72;10486274;28;2808;-73
2023/10/24 21:33:34;;;;;;;;;;;;;;;10.60;100.00;94654.09;10474372;28;2643;-72
2023/10/24 21:38:37;;;;;;;;;;;;;;;10.53;100.00;94656.41;10486073;28;2631;-71
2023/10/24 21:43:40;;;;;;;;;;;;;;;10.55;100.00;94654.19;10496573;28;2715;-71
2023/10/24 21:48:43;;;;;;;;;;;;;;;10.47;100.00;94652.22;10483394;28;5368;-70
2023/10/24 21:53:48;;;;;;;;;;;;;;;10.47;100.00;94657.59;10525680;27;2669;-70
2023/10/24 21:58:53;;;;;;;;;;;;;;;10.44;100.00;94659.00;10491420;28;2644;-70
2023/10/24 22:03:57;;;;;;;;;;;;;;;10.48;100.00;94653.81;10490492;28;2557;-71
2023/10/24 22:09:00;;;;;;;;;;;;;;;10.46;100.00;94656.00;10509423;28;2695;-71
2023/10/24 22:14:04;;;;;;;;;;;;;;;10.37;100.00;94671.22;10515247;28;2770;-72
2023/10/24 22:19:10;;;;;;;;;;;;;;;10.38;100.00;94672.84;10508830;28;3019;-73
2023/10/24 22:24:15;;;;;;;;;;;;;;;10.38;100.00;94673.63;10502788;28;2618;-72
2023/10/24 22:29:19;;;;;;;;;;;;;;;10.35;100.00;94670.72;10480089;28;2638;-72
2023/10/24 22:34:23;;;;;;;;;;;;;;;10.37;100.00;94671.22;10485921;28;2609;-72
2023/10/24 22:39:27;;;;;;;;;;;;;;;10.34;100.00;94666.47;10511568;28;2819;-72
2023/10/24 22:44:32;;;;;;;;;;;;;;;10.32;100.00;94666.75;10507085;28;2618;-71
2023/10/24 22:49:35;;;;;;;;;;;;;;;10.32;100.00;94668.66;10512670;28;5287;-72
2023/10/24 22:54:42;;;;;;;;;;;;;;;10.24;100.00;94670.94;10514523;28;2652;-73
2023/10/24 22:59:46;;;;;;;;;;;;;;;10.29;100.00;94670.03;10511048;28;2564;-73
2023/10/24 23:04:51;;;;;;;;;;;;;;;10.31;100.00;94675.09;10511360;28;2927;-72
2023/10/24 23:09:58;;;;;;;;;;;;;;;10.37;100.00;94671.22;10478172;28;2783;-73
2023/10/24 23:15:02;;;;;;;;;;;;;;;10.36;100.00;94672.31;10513177;28;2677;-72
2023/10/24 23:20:05;;;;;;;;;;;;;;;10.37;100.00;94663.16;10483525;28;2617;-71
2023/10/24 23:25:08;;;;;;;;;;;;;;;10.43;100.00;94672.72;10491355;28;2589;-71
2023/10/24 23:30:12;;;;;;;;;;;;;;;10.42;100.00;94671.13;10487225;28;2758;-74
2023/10/24 23:35:14;;;;;;;;;;;;;;;10.42;100.00;94682.66;10496740;28;2745;-72
2023/10/24 23:40:18;;;;;;;;;;;;;;;10.44;100.00;94687.75;10512843;28;2675;-71
2023/10/24 23:45:21;;;;;;;;;;;;;;;10.41;100.00;94694.50;10516570;28;2859;-70
2023/10/24 23:50:27;;;;;;;;;;;;;;;10.31;100.00;94696.59;10497208;28;2666;-71
2023/10/24 23:55:35;;;;;;;;;;;;;;;10.33;100.00;94689.03;10528686;27;2590;-71
